DTMB/MIR METAR and TAF weather

Enter ICAO airport designator
Station Type Date Time Source
DTMB METAR 2019/10/21 22:00 UTC NOAA

DTMB 212200Z 00000KT 9999 FEW016 22/22 Q1019


Station Type Date Time Source
DTMB Decoded METAR 2019/10/21 22:00 UTC NOAA

Habib Bourguiba , Tunisia (DTMB) 35-46N 010-45E
Oct 21, 2019 - 06:00 PM EDT / 2019.10.21 2200 UTC
Wind: Calm:0
Visibility: greater than 7 mile(s):0
Sky conditions: mostly clear
Temperature: 71 F (22 C)
Dew Point: 71 F (22 C)
Relative Humidity: 100%
Pressure (altimeter): 30.09 in. Hg (1019 hPa)
ob: DTMB 212200Z 00000KT 9999 FEW016 22/22 Q1019
cycle: 22

Station Type Date Time Source
DTMB TAF 2019/10/21 18:03 UTC NOAA

TAF TAF DTMB 211700Z 2118/2218 10014KT 9999 FEW026 PROB30
TEMPO 2119/2122 VRB30KT 4000 -TSRA FEW026CB
BECMG 2206/2208 13019KT 9999 SCT020 SCT026 PROB40
TEMPO 2207/2212 4000 -TSRA FEW030CB

Example: see airport list